Thompson Falls, MT (59873)

10:27 PM MST on November 28, 2014 (GMT -0700)
RAWS THOMPSON FALLS A/P MT US | Change Station
CLOSE
Current Station
Personal Weather Station
Location: Thompson Falls, MT
Elevation: 2425 ft
Nearby Weather Stations

Elev 2425 ft 47.58 °N, 115.28 °W | Updated 25 minutes ago

Mostly Cloudy
Mostly Cloudy
44 °F
Feels Like 44 °F
N
3
Wind Variable Wind from WSW
Gusts 19.0 mph

Today
High -- | Low -- °F
--% Chance of Precip.
Yesterday
High -- | Low -- °F
Precip. -- in
8:05 AM 4:53 PM
Waxing Crescent, 48% visible
Pressure 29.24 in
Visibility 10.0 miles
Clouds Few 2600 ft
Scattered Clouds 4700 ft
Mostly Cloudy 6000 ft
Windchill 44 °F
Dew Point 40 °F
Humidity 85%
Rainfall 0.65 in
Snow Depth Not available.
UV 0 out of 12
Pollen .10 out of 12
Air Quality Not available.
Flu Activity Not available.
METAR KCOE 290515Z AUTO 23025G38KT 10SM FEW026 SCT047 BKN060 09/05 A2924 RMK AO1

More Conditions Fewer Conditions

Pressure 29.24 in
Visibility 10.0 miles
Clouds Few 2600 ft
Scattered Clouds 4700 ft
Mostly Cloudy 6000 ft
Windchill 44 °F
Dew Point 40 °F
Humidity 85%
Rainfall 0.65 in
Snow Depth Not available.
UV 0 out of 12
Pollen .10 out of 12
Air Quality Not available.
Flu Activity Not available.
METAR KCOE 290515Z AUTO 23025G38KT 10SM FEW026 SCT047 BKN060 09/05 A2924 RMK AO1

More Conditions Fewer Conditions

10-Day Weather Forecast

Almanac

Astronomy

Nov. 28, 2014 Rise Set
Actual Time
Civil Twilight
Nautical Twilight
Astronomical Twilight
Moon
Length of Visible Light
Length of Day
Tomorrow will be .
, % of the Moon is Illuminated

Today's Extremes

State Highs State Lows

Community

WunderPhotos

Upload Photos

1,774,419 photos uploaded!

WunderBlogs® & News

Nearby

Air Quality

  Air Quality AQ Index Pollutant
Not available.

Snow Depth

Station Depth Elevation

Earthquake Activity

City Distance Mag. Time & Date
Minimum magnitude displayed is 2.5.

Coastal Water Temperatures

Place Temperature

Nearby Weather Stations